King Salmon Airport
PAKN : now visible

Airfield :











YOU CAN JOIN US ON...

 
LOGIN :

Register | Disclaimer

   EN    FR    IT 

 









Legend :    VFR   Marginal VFR   IFR   Intensive IFR   Very Intensive IFR
Visi :
Ceiling :
>= 8 km
>= 3000ft
5 to 8 km
1000 to 3000 ft
1500m to 5 km
500 to 1000 ft
800 to 1500m
200 to 500 ft
< 800m
< 200 ft
Symbols :   Thunderstorms  Fog  Heavy snow  Heavy precipitations  Wind > 20 kt






- Airport Elevation : 73 ft
- IATA code : AKN


PAKN - King Salmon

CURRENT METAR :
  • 240354Z 26013G18KT 1 3/4SM BR OVC005 M01/M01 A2975 RMK AO2 SLP077 I1001 T10061011

EXPIRED METARs :
  • 240343Z 27013G21KT 2SM BR OVC005 M01/M01 A2975 RMK AO2 I1001 T10061011
  • 240328Z 26012KT 4SM BR OVC005 M01/M01 A2973 RMK AO2 I1000 T10061011
  • 240316Z 25012KT 2SM BR OVC005 M01/M01 A2973 RMK AO2 I1000 T10061011
  • 240254Z 25010KT 10SM OVC004 M01/M01 A2971 RMK AO2 UPE0156 SLP063 P0000 60001 I1000 I3000 T10061011 53010
  • 240154Z 26010KT 6SM UP BR BKN005 OVC010 00/M01 A2968 RMK AO2 RAB0059E15UPB15E32B44 SLP053 P0001 I1000 T00001006
  • 240140Z 26010KT 5SM BR BKN005 OVC009 00/M01 A2967 RMK AO2 RAB0059E15UPB15E32 P0001 I1000 T00001006
  • 240105Z 26008KT 3SM -RA BR OVC004 01/M01 A2966 RMK AO2 RAB0059 P0000 T00061006

TAF PAKN
Valid from the 24 at 03:00 until the 25 at 00:00 UTC


240321Z 2403/2424 25010KT 6SM -SHSN OVC004
TEMPO 2403/2406 2SM BR OVC005
FM240900 25010KT P6SM SCT025 OVC050
PAZA FIR / North America



MET'MAP, your aeronautical weather chart ! - Copyright ORBIFLY December 2007 - Disclaimer

ORBIFLY MET'MAP TEAM :

Programming & Development : Alexandra Zaïnal
Concept & original design : Baudouin d'Aumeries
Assistance for programming : Marc-Olivier Méhu
Technical & hardware support : Manuel Goepfert

Contact : metmap@orbifly.com




SOURCES & CREDITS :

   NOAA       Earth
Advisory